Portada
METAR-TAF:

METAR-TAF

Aeropuertos :

Mankato, Minnesota, Estados Unidos

latitud: 44-13N, longitud: 093-55W, altitud: 311 m

Observación

El informe se hizo hace 1 hora y 1 minutos, a las 04:56 UTC
Viento 9 kt del oeste
Temperatura 1°C
Humedad 64%
Presión 1014 hPa
Visibilidad: 16.1 km
Cielo despejado

METAR: KMKT 040456Z AUTO 26009KT 10SM CLR 01/M05 A2993 RMK AO2 SLP147 T00061050 FZRANO

Hora: 23:57 (05:57 UTC)

Pronóstico

El informe se hizo hace 37 minutos, a las 05:20 UTC
Pronóstico válido del 04 a las 06 UTC al 05 a las 06 UTC
Viento 7 kt del oeste
Visibilidad: 10 km
Nubes dispersas a una altura de 25000 ft
A partir de las 04 a las 1100 UTC
Viento 6 kt del noroeste
Visibilidad: 10 km
Escasas nubes a una altura de 25000 ft
A partir de las 04 a las 1500 UTC
Viento 6 kt del norte-noroeste
Visibilidad: 10 km
Escasas nubes a una altura de 20000 ft

TAF: KMKT 040520Z 0406/0506 26007KT P6SM SCT250 FM041100 31006KT P6SM FEW250 FM041500 34006KT P6SM FEW200

Observaciones y pronósticos meteorológicos de más de 4000 aeropuertos (mensajes METAR y TAF).

Los puntos amarillos y rojos representan las estaciones disponibles.

Ponga el ratón en el punto deseado para ver el nombre de la estación.

Haga clic para ver las observaciones y los pronósticos meteorológicos.

Para cambiar el mapa : haga clic en los botones verdes con una cruz de color negro para hacer un zoom, en el botón verde con un guión para alejar o en las flechas verdes para mapas adyacentes.


METAR-TAF: